KMEV/MEV METAR and TAF weather

Enter ICAO airport designator
Station Type Date Time Source
KMEV METAR 2021/08/05 04:35 UTC NOAA

KMEV 050435Z AUTO 18010KT 10SM CLR 27/01 A3008 RMK AO2


Station Type Date Time Source
KMEV Decoded METAR 2021/08/05 04:35 UTC NOAA

Station name not available
Aug 05, 2021 - 12:35 AM EDT / 2021.08.05 0435 UTC
Wind: from the S (180 degrees) at 12 MPH (10 KT):0
Visibility: 10 mile(s):0
Sky conditions: clear
Temperature: 80 F (27 C)
Dew Point: 33 F (1 C)
Relative Humidity: 18%
Pressure (altimeter): 30.08 in. Hg (1018 hPa)
ob: KMEV 050435Z AUTO 18010KT 10SM CLR 27/01 A3008 RMK AO2
cycle: 4

Station Type Date Time Source
KMEV TAF 2021/08/04 18:42 UTC NOAA

TAF KMEV 041741Z 0418/0518 VRB04KT P6SM FEW250
FM042200 22015G24KT P6SM FEW090 SCT250
FM050400 24006KT P6SM FEW250
FM051000 08007KT P6SM SKC
FM051700 21011G20KT P6SM SCT250

Example: see airport list